< < Back
Terminal Aerodrome Forecast


Current Version              Previous Versions:   1  2  3  4  5  6  7  8  9  

Terminal Aerodrome Forecast

089
FTUS42 KTAE 192000 AAA
TAFTLH
TAF AMD
KTLH 192015Z 1920/2018 07003KT P6SM -RA SCT080 BKN110 BKN200
     FM192200 08003KT P6SM VCSH OVC050
     FM200300 06003KT P6SM BKN050=



Latest METAR

193
SAUS80 KWBC 201200 RRC
MTRTLH
METAR KTLH 201153Z 06003KT 10SM OVC085 11/08 A3010 RMK AO2 RAB1054E05
SLP192 P0000 60000 70014 T01110078 10111 20106 53005 $


USA.gov is the U.S. government's official web portal to all federal, state and local government web resources and services.